sensor_id;sensor_type;location;lat;lon;timestamp;P1;durP1;ratioP1;P2;durP2;ratioP2
64903;SDS011;51401;48.882;12.598;2023-04-07T00:01:27;12.23;;;7.47;;
64903;SDS011;51401;48.882;12.598;2023-04-07T00:03:52;13.25;;;7.43;;
64903;SDS011;51401;48.882;12.598;2023-04-07T00:06:18;12.15;;;8.07;;
64903;SDS011;51401;48.882;12.598;2023-04-07T00:08:43;12.52;;;7.78;;
64903;SDS011;51401;48.882;12.598;2023-04-07T00:11:08;11.70;;;7.32;;
64903;SDS011;51401;48.882;12.598;2023-04-07T00:13:34;12.27;;;7.80;;
64903;SDS011;51401;48.882;12.598;2023-04-07T00:15:59;13.27;;;7.38;;
64903;SDS011;51401;48.882;12.598;2023-04-07T00:18:24;10.90;;;7.45;;
64903;SDS011;51401;48.882;12.598;2023-04-07T00:20:50;11.32;;;7.32;;
64903;SDS011;51401;48.882;12.598;2023-04-07T00:23:15;10.13;;;7.40;;
64903;SDS011;51401;48.882;12.598;2023-04-07T00:25:41;11.68;;;7.82;;
64903;SDS011;51401;48.882;12.598;2023-04-07T00:28:06;11.18;;;6.85;;
64903;SDS011;51401;48.882;12.598;2023-04-07T00:30:31;10.77;;;6.80;;
64903;SDS011;51401;48.882;12.598;2023-04-07T00:32:57;11.07;;;7.50;;
64903;SDS011;51401;48.882;12.598;2023-04-07T00:35:22;10.88;;;6.95;;
64903;SDS011;51401;48.882;12.598;2023-04-07T00:37:47;11.23;;;7.85;;
64903;SDS011;51401;48.882;12.598;2023-04-07T00:40:12;10.30;;;7.20;;
64903;SDS011;51401;48.882;12.598;2023-04-07T00:42:38;9.93;;;7.03;;
64903;SDS011;51401;48.882;12.598;2023-04-07T00:45:03;14.18;;;7.72;;
64903;SDS011;51401;48.882;12.598;2023-04-07T00:47:29;10.32;;;7.57;;
64903;SDS011;51401;48.882;12.598;2023-04-07T00:49:55;11.20;;;7.95;;
64903;SDS011;51401;48.882;12.598;2023-04-07T00:52:20;12.10;;;7.95;;
64903;SDS011;51401;48.882;12.598;2023-04-07T00:54:52;8.88;;;7.57;;
64903;SDS011;51401;48.882;12.598;2023-04-07T00:57:21;10.98;;;7.43;;
64903;SDS011;51401;48.882;12.598;2023-04-07T00:59:48;14.63;;;8.38;;
64903;SDS011;51401;48.882;12.598;2023-04-07T01:02:34;13.77;;;8.73;;
64903;SDS011;51401;48.882;12.598;2023-04-07T01:05:20;12.88;;;8.13;;
64903;SDS011;51401;48.882;12.598;2023-04-07T01:10:55;12.95;;;8.00;;
64903;SDS011;51401;48.882;12.598;2023-04-07T01:13:42;11.25;;;7.70;;
64903;SDS011;51401;48.882;12.598;2023-04-07T01:16:14;11.45;;;8.35;;
64903;SDS011;51401;48.882;12.598;2023-04-07T01:18:43;11.45;;;8.13;;
64903;SDS011;51401;48.882;12.598;2023-04-07T01:21:14;11.45;;;7.93;;
64903;SDS011;51401;48.882;12.598;2023-04-07T01:26:29;10.55;;;7.50;;
64903;SDS011;51401;48.882;12.598;2023-04-07T01:31:55;11.43;;;7.22;;
64903;SDS011;51401;48.882;12.598;2023-04-07T01:34:24;10.65;;;7.68;;
64903;SDS011;51401;48.882;12.598;2023-04-07T01:36:51;10.40;;;7.75;;
64903;SDS011;51401;48.882;12.598;2023-04-07T01:39:18;10.93;;;7.68;;
64903;SDS011;51401;48.882;12.598;2023-04-07T01:41:45;10.98;;;7.30;;
64903;SDS011;51401;48.882;12.598;2023-04-07T01:44:11;10.38;;;7.25;;
64903;SDS011;51401;48.882;12.598;2023-04-07T01:46:38;12.63;;;7.95;;
64903;SDS011;51401;48.882;12.598;2023-04-07T01:49:03;10.95;;;7.80;;
64903;SDS011;51401;48.882;12.598;2023-04-07T01:51:29;10.55;;;7.50;;
64903;SDS011;51401;48.882;12.598;2023-04-07T01:53:56;11.00;;;7.72;;
64903;SDS011;51401;48.882;12.598;2023-04-07T01:56:23;10.40;;;7.82;;
64903;SDS011;51401;48.882;12.598;2023-04-07T01:58:48;9.68;;;7.30;;
64903;SDS011;51401;48.882;12.598;2023-04-07T02:01:13;11.88;;;7.55;;
64903;SDS011;51401;48.882;12.598;2023-04-07T02:03:40;12.43;;;8.05;;
64903;SDS011;51401;48.882;12.598;2023-04-07T02:06:08;11.90;;;7.70;;
64903;SDS011;51401;48.882;12.598;2023-04-07T02:08:36;10.77;;;6.65;;
64903;SDS011;51401;48.882;12.598;2023-04-07T02:11:06;11.30;;;7.18;;
64903;SDS011;51401;48.882;12.598;2023-04-07T02:13:34;11.32;;;7.40;;
64903;SDS011;51401;48.882;12.598;2023-04-07T02:16:01;13.25;;;7.75;;
64903;SDS011;51401;48.882;12.598;2023-04-07T02:18:29;10.25;;;7.35;;
64903;SDS011;51401;48.882;12.598;2023-04-07T02:20:56;10.48;;;6.80;;
64903;SDS011;51401;48.882;12.598;2023-04-07T02:23:23;10.73;;;7.30;;
64903;SDS011;51401;48.882;12.598;2023-04-07T02:25:49;8.07;;;6.82;;
64903;SDS011;51401;48.882;12.598;2023-04-07T02:28:14;10.20;;;6.43;;
64903;SDS011;51401;48.882;12.598;2023-04-07T02:30:40;10.15;;;7.00;;
64903;SDS011;51401;48.882;12.598;2023-04-07T02:33:05;9.40;;;6.82;;
64903;SDS011;51401;48.882;12.598;2023-04-07T02:35:31;15.05;;;7.38;;
64903;SDS011;51401;48.882;12.598;2023-04-07T02:37:56;11.48;;;6.72;;
64903;SDS011;51401;48.882;12.598;2023-04-07T02:40:21;10.77;;;6.47;;
64903;SDS011;51401;48.882;12.598;2023-04-07T02:42:47;12.02;;;7.85;;
64903;SDS011;51401;48.882;12.598;2023-04-07T02:45:12;10.18;;;7.05;;
64903;SDS011;51401;48.882;12.598;2023-04-07T02:47:38;11.05;;;7.25;;
64903;SDS011;51401;48.882;12.598;2023-04-07T02:50:04;11.45;;;7.20;;
64903;SDS011;51401;48.882;12.598;2023-04-07T02:52:30;10.60;;;7.15;;
64903;SDS011;51401;48.882;12.598;2023-04-07T02:54:55;12.02;;;8.00;;
64903;SDS011;51401;48.882;12.598;2023-04-07T02:57:20;11.95;;;7.32;;
64903;SDS011;51401;48.882;12.598;2023-04-07T02:59:46;10.63;;;7.80;;
64903;SDS011;51401;48.882;12.598;2023-04-07T03:02:11;11.35;;;6.72;;
64903;SDS011;51401;48.882;12.598;2023-04-07T03:04:37;11.60;;;7.18;;
64903;SDS011;51401;48.882;12.598;2023-04-07T03:07:02;10.00;;;7.03;;
64903;SDS011;51401;48.882;12.598;2023-04-07T03:09:27;10.77;;;6.78;;
64903;SDS011;51401;48.882;12.598;2023-04-07T03:11:53;9.95;;;7.30;;
64903;SDS011;51401;48.882;12.598;2023-04-07T03:14:18;8.88;;;6.43;;
64903;SDS011;51401;48.882;12.598;2023-04-07T03:16:43;8.45;;;6.03;;
64903;SDS011;51401;48.882;12.598;2023-04-07T03:19:09;8.48;;;7.10;;
64903;SDS011;51401;48.882;12.598;2023-04-07T03:21:35;10.10;;;6.55;;
64903;SDS011;51401;48.882;12.598;2023-04-07T03:24:04;8.90;;;6.22;;
64903;SDS011;51401;48.882;12.598;2023-04-07T03:26:31;9.98;;;6.70;;
64903;SDS011;51401;48.882;12.598;2023-04-07T03:28:57;10.63;;;7.38;;
64903;SDS011;51401;48.882;12.598;2023-04-07T03:31:22;10.93;;;7.07;;
64903;SDS011;51401;48.882;12.598;2023-04-07T03:33:48;11.32;;;7.35;;
64903;SDS011;51401;48.882;12.598;2023-04-07T03:36:13;11.10;;;7.35;;
64903;SDS011;51401;48.882;12.598;2023-04-07T03:38:39;10.98;;;7.32;;
64903;SDS011;51401;48.882;12.598;2023-04-07T03:41:04;11.57;;;7.93;;
64903;SDS011;51401;48.882;12.598;2023-04-07T03:43:29;10.93;;;6.97;;
64903;SDS011;51401;48.882;12.598;2023-04-07T03:45:55;14.02;;;7.32;;
64903;SDS011;51401;48.882;12.598;2023-04-07T03:48:20;10.85;;;8.25;;
64903;SDS011;51401;48.882;12.598;2023-04-07T03:50:46;10.15;;;7.47;;
64903;SDS011;51401;48.882;12.598;2023-04-07T03:53:11;11.35;;;7.10;;
64903;SDS011;51401;48.882;12.598;2023-04-07T03:55:40;12.75;;;7.13;;
64903;SDS011;51401;48.882;12.598;2023-04-07T03:58:06;11.35;;;7.32;;
64903;SDS011;51401;48.882;12.598;2023-04-07T04:00:32;10.35;;;7.13;;
64903;SDS011;51401;48.882;12.598;2023-04-07T04:02:58;10.75;;;7.45;;
64903;SDS011;51401;48.882;12.598;2023-04-07T04:05:23;9.80;;;6.78;;
64903;SDS011;51401;48.882;12.598;2023-04-07T04:07:49;10.32;;;7.40;;
64903;SDS011;51401;48.882;12.598;2023-04-07T04:10:16;10.98;;;6.78;;
64903;SDS011;51401;48.882;12.598;2023-04-07T04:12:42;9.95;;;7.00;;
64903;SDS011;51401;48.882;12.598;2023-04-07T04:15:08;13.35;;;7.00;;
64903;SDS011;51401;48.882;12.598;2023-04-07T04:17:34;8.90;;;6.68;;
64903;SDS011;51401;48.882;12.598;2023-04-07T04:19:59;10.68;;;6.93;;
64903;SDS011;51401;48.882;12.598;2023-04-07T04:22:25;10.02;;;6.93;;
64903;SDS011;51401;48.882;12.598;2023-04-07T04:24:50;10.48;;;6.30;;
64903;SDS011;51401;48.882;12.598;2023-04-07T04:27:15;9.55;;;6.47;;
64903;SDS011;51401;48.882;12.598;2023-04-07T04:29:41;13.02;;;7.43;;
64903;SDS011;51401;48.882;12.598;2023-04-07T04:32:06;10.07;;;7.40;;
64903;SDS011;51401;48.882;12.598;2023-04-07T04:34:32;10.55;;;7.55;;
64903;SDS011;51401;48.882;12.598;2023-04-07T04:42:00;11.20;;;6.72;;
64903;SDS011;51401;48.882;12.598;2023-04-07T04:44:28;11.27;;;7.95;;
64903;SDS011;51401;48.882;12.598;2023-04-07T04:46:54;11.30;;;6.90;;
64903;SDS011;51401;48.882;12.598;2023-04-07T04:49:19;12.32;;;8.10;;
64903;SDS011;51401;48.882;12.598;2023-04-07T04:51:45;11.90;;;7.53;;
64903;SDS011;51401;48.882;12.598;2023-04-07T04:54:10;11.68;;;7.82;;
64903;SDS011;51401;48.882;12.598;2023-04-07T04:56:35;11.10;;;8.32;;
64903;SDS011;51401;48.882;12.598;2023-04-07T04:59:01;12.35;;;8.68;;
64903;SDS011;51401;48.882;12.598;2023-04-07T05:01:27;11.38;;;8.02;;
64903;SDS011;51401;48.882;12.598;2023-04-07T05:03:53;10.88;;;7.80;;
64903;SDS011;51401;48.882;12.598;2023-04-07T05:06:18;10.73;;;7.30;;
64903;SDS011;51401;48.882;12.598;2023-04-07T05:08:43;11.27;;;7.78;;
64903;SDS011;51401;48.882;12.598;2023-04-07T05:11:09;12.70;;;8.38;;
64903;SDS011;51401;48.882;12.598;2023-04-07T05:13:35;13.73;;;10.00;;
64903;SDS011;51401;48.882;12.598;2023-04-07T05:16:00;11.50;;;9.15;;
64903;SDS011;51401;48.882;12.598;2023-04-07T05:18:26;12.88;;;8.38;;
64903;SDS011;51401;48.882;12.598;2023-04-07T05:20:51;18.92;;;13.75;;
64903;SDS011;51401;48.882;12.598;2023-04-07T05:23:16;16.30;;;11.57;;
64903;SDS011;51401;48.882;12.598;2023-04-07T05:25:42;18.23;;;15.02;;
64903;SDS011;51401;48.882;12.598;2023-04-07T05:28:07;13.10;;;9.23;;
64903;SDS011;51401;48.882;12.598;2023-04-07T05:30:32;13.32;;;11.27;;
64903;SDS011;51401;48.882;12.598;2023-04-07T05:32:58;12.48;;;9.07;;
64903;SDS011;51401;48.882;12.598;2023-04-07T05:35:23;10.60;;;8.30;;
64903;SDS011;51401;48.882;12.598;2023-04-07T05:37:48;12.27;;;8.50;;
64903;SDS011;51401;48.882;12.598;2023-04-07T05:40:13;13.45;;;8.23;;
64903;SDS011;51401;48.882;12.598;2023-04-07T05:42:39;9.60;;;7.68;;
64903;SDS011;51401;48.882;12.598;2023-04-07T05:45:05;11.07;;;8.45;;
64903;SDS011;51401;48.882;12.598;2023-04-07T05:47:31;12.02;;;8.25;;
64903;SDS011;51401;48.882;12.598;2023-04-07T05:49:56;11.63;;;8.38;;
64903;SDS011;51401;48.882;12.598;2023-04-07T05:52:21;12.18;;;8.25;;
64903;SDS011;51401;48.882;12.598;2023-04-07T05:54:47;10.10;;;8.13;;
64903;SDS011;51401;48.882;12.598;2023-04-07T05:57:12;11.68;;;8.70;;
64903;SDS011;51401;48.882;12.598;2023-04-07T05:59:37;10.82;;;8.38;;
64903;SDS011;51401;48.882;12.598;2023-04-07T06:02:03;11.32;;;9.07;;
64903;SDS011;51401;48.882;12.598;2023-04-07T06:04:29;10.95;;;8.98;;
64903;SDS011;51401;48.882;12.598;2023-04-07T06:06:54;10.80;;;8.32;;
64903;SDS011;51401;48.882;12.598;2023-04-07T06:09:20;11.07;;;8.20;;
64903;SDS011;51401;48.882;12.598;2023-04-07T06:11:46;9.70;;;7.65;;
64903;SDS011;51401;48.882;12.598;2023-04-07T06:14:11;10.40;;;8.75;;
64903;SDS011;51401;48.882;12.598;2023-04-07T06:16:37;10.93;;;8.45;;
64903;SDS011;51401;48.882;12.598;2023-04-07T06:19:03;13.02;;;9.13;;
64903;SDS011;51401;48.882;12.598;2023-04-07T06:21:28;9.82;;;8.23;;
64903;SDS011;51401;48.882;12.598;2023-04-07T06:23:54;11.52;;;8.95;;
64903;SDS011;51401;48.882;12.598;2023-04-07T06:26:20;13.15;;;8.50;;
64903;SDS011;51401;48.882;12.598;2023-04-07T06:28:45;10.70;;;9.00;;
64903;SDS011;51401;48.882;12.598;2023-04-07T06:31:11;12.35;;;9.45;;
64903;SDS011;51401;48.882;12.598;2023-04-07T06:33:36;10.30;;;7.97;;
64903;SDS011;51401;48.882;12.598;2023-04-07T06:36:10;12.25;;;8.90;;
64903;SDS011;51401;48.882;12.598;2023-04-07T06:38:37;10.73;;;8.75;;
64903;SDS011;51401;48.882;12.598;2023-04-07T06:41:02;12.63;;;9.82;;
64903;SDS011;51401;48.882;12.598;2023-04-07T06:43:28;13.52;;;8.90;;
64903;SDS011;51401;48.882;12.598;2023-04-07T06:45:54;11.88;;;9.20;;
64903;SDS011;51401;48.882;12.598;2023-04-07T06:48:19;15.07;;;9.50;;
64903;SDS011;51401;48.882;12.598;2023-04-07T06:50:45;12.73;;;9.43;;
64903;SDS011;51401;48.882;12.598;2023-04-07T06:53:11;14.95;;;11.10;;
64903;SDS011;51401;48.882;12.598;2023-04-07T06:55:36;12.57;;;9.17;;
64903;SDS011;51401;48.882;12.598;2023-04-07T06:58:01;16.27;;;9.73;;
64903;SDS011;51401;48.882;12.598;2023-04-07T07:00:27;11.45;;;9.32;;
64903;SDS011;51401;48.882;12.598;2023-04-07T07:02:54;9.60;;;8.70;;
64903;SDS011;51401;48.882;12.598;2023-04-07T07:05:20;12.32;;;10.60;;
64903;SDS011;51401;48.882;12.598;2023-04-07T07:07:47;13.40;;;10.05;;
64903;SDS011;51401;48.882;12.598;2023-04-07T07:10:13;11.02;;;9.25;;
64903;SDS011;51401;48.882;12.598;2023-04-07T07:12:38;11.20;;;9.48;;
64903;SDS011;51401;48.882;12.598;2023-04-07T07:15:03;11.27;;;9.23;;
64903;SDS011;51401;48.882;12.598;2023-04-07T07:17:29;12.07;;;9.57;;
64903;SDS011;51401;48.882;12.598;2023-04-07T07:19:54;11.80;;;9.52;;
64903;SDS011;51401;48.882;12.598;2023-04-07T07:22:20;11.43;;;9.70;;
64903;SDS011;51401;48.882;12.598;2023-04-07T07:24:45;11.63;;;9.03;;
64903;SDS011;51401;48.882;12.598;2023-04-07T07:27:10;10.77;;;9.23;;
64903;SDS011;51401;48.882;12.598;2023-04-07T07:29:35;14.60;;;9.50;;
64903;SDS011;51401;48.882;12.598;2023-04-07T07:32:01;11.53;;;8.97;;
64903;SDS011;51401;48.882;12.598;2023-04-07T07:34:26;10.68;;;9.25;;
64903;SDS011;51401;48.882;12.598;2023-04-07T07:36:51;11.50;;;9.32;;
64903;SDS011;51401;48.882;12.598;2023-04-07T07:39:16;10.90;;;9.33;;
64903;SDS011;51401;48.882;12.598;2023-04-07T07:41:42;11.75;;;9.43;;
64903;SDS011;51401;48.882;12.598;2023-04-07T07:44:07;12.93;;;9.90;;
64903;SDS011;51401;48.882;12.598;2023-04-07T07:46:32;13.60;;;9.88;;
64903;SDS011;51401;48.882;12.598;2023-04-07T07:48:58;11.10;;;9.88;;
64903;SDS011;51401;48.882;12.598;2023-04-07T07:51:23;12.80;;;9.73;;
64903;SDS011;51401;48.882;12.598;2023-04-07T07:53:48;15.30;;;9.95;;
64903;SDS011;51401;48.882;12.598;2023-04-07T07:56:14;12.60;;;9.57;;
64903;SDS011;51401;48.882;12.598;2023-04-07T07:58:39;12.00;;;10.38;;
64903;SDS011;51401;48.882;12.598;2023-04-07T08:01:05;13.10;;;10.45;;
64903;SDS011;51401;48.882;12.598;2023-04-07T08:03:30;12.68;;;10.10;;
64903;SDS011;51401;48.882;12.598;2023-04-07T08:05:55;12.07;;;9.98;;
64903;SDS011;51401;48.882;12.598;2023-04-07T08:08:21;12.70;;;9.60;;
64903;SDS011;51401;48.882;12.598;2023-04-07T08:10:46;11.30;;;9.93;;
64903;SDS011;51401;48.882;12.598;2023-04-07T08:13:12;13.75;;;10.77;;
64903;SDS011;51401;48.882;12.598;2023-04-07T08:15:38;13.82;;;10.65;;
64903;SDS011;51401;48.882;12.598;2023-04-07T08:18:04;13.18;;;10.57;;
64903;SDS011;51401;48.882;12.598;2023-04-07T08:20:30;11.77;;;10.13;;
64903;SDS011;51401;48.882;12.598;2023-04-07T08:22:56;13.48;;;11.35;;
64903;SDS011;51401;48.882;12.598;2023-04-07T08:25:21;12.02;;;10.48;;
64903;SDS011;51401;48.882;12.598;2023-04-07T08:27:47;13.43;;;10.10;;
64903;SDS011;51401;48.882;12.598;2023-04-07T08:30:12;13.70;;;10.73;;
64903;SDS011;51401;48.882;12.598;2023-04-07T08:32:41;12.27;;;10.38;;
64903;SDS011;51401;48.882;12.598;2023-04-07T08:35:08;12.48;;;9.57;;
64903;SDS011;51401;48.882;12.598;2023-04-07T08:37:34;12.63;;;9.77;;
64903;SDS011;51401;48.882;12.598;2023-04-07T08:40:00;13.32;;;10.00;;
64903;SDS011;51401;48.882;12.598;2023-04-07T08:42:28;12.13;;;10.30;;
64903;SDS011;51401;48.882;12.598;2023-04-07T08:44:55;13.90;;;10.90;;
64903;SDS011;51401;48.882;12.598;2023-04-07T08:47:23;14.60;;;11.15;;
64903;SDS011;51401;48.882;12.598;2023-04-07T08:49:51;13.20;;;10.07;;
64903;SDS011;51401;48.882;12.598;2023-04-07T08:52:17;12.18;;;10.73;;
64903;SDS011;51401;48.882;12.598;2023-04-07T08:54:47;11.53;;;10.23;;
64903;SDS011;51401;48.882;12.598;2023-04-07T08:57:13;13.20;;;10.50;;
64903;SDS011;51401;48.882;12.598;2023-04-07T08:59:40;13.85;;;11.20;;
64903;SDS011;51401;48.882;12.598;2023-04-07T09:02:08;13.40;;;10.65;;
64903;SDS011;51401;48.882;12.598;2023-04-07T09:04:34;13.20;;;10.60;;
64903;SDS011;51401;48.882;12.598;2023-04-07T09:06:59;12.50;;;11.05;;
64903;SDS011;51401;48.882;12.598;2023-04-07T09:09:26;14.65;;;11.00;;
64903;SDS011;51401;48.882;12.598;2023-04-07T09:11:51;13.52;;;10.20;;
64903;SDS011;51401;48.882;12.598;2023-04-07T09:14:17;13.23;;;10.75;;
64903;SDS011;51401;48.882;12.598;2023-04-07T09:16:44;12.82;;;11.35;;
64903;SDS011;51401;48.882;12.598;2023-04-07T09:19:10;13.25;;;10.82;;
64903;SDS011;51401;48.882;12.598;2023-04-07T09:21:48;12.33;;;10.63;;
64903;SDS011;51401;48.882;12.598;2023-04-07T09:24:22;12.67;;;10.03;;
64903;SDS011;51401;48.882;12.598;2023-04-07T09:26:48;12.93;;;10.65;;
64903;SDS011;51401;48.882;12.598;2023-04-07T09:29:17;11.82;;;9.88;;
64903;SDS011;51401;48.882;12.598;2023-04-07T09:31:45;11.45;;;9.82;;
64903;SDS011;51401;48.882;12.598;2023-04-07T09:34:25;13.57;;;10.80;;
64903;SDS011;51401;48.882;12.598;2023-04-07T09:36:52;12.18;;;10.85;;
64903;SDS011;51401;48.882;12.598;2023-04-07T09:39:18;11.70;;;10.45;;
64903;SDS011;51401;48.882;12.598;2023-04-07T09:41:43;12.23;;;9.95;;
64903;SDS011;51401;48.882;12.598;2023-04-07T09:44:09;13.18;;;11.35;;
64903;SDS011;51401;48.882;12.598;2023-04-07T09:46:34;13.73;;;11.50;;
64903;SDS011;51401;48.882;12.598;2023-04-07T09:49:03;13.27;;;10.85;;
64903;SDS011;51401;48.882;12.598;2023-04-07T09:54:37;13.43;;;10.90;;
64903;SDS011;51401;48.882;12.598;2023-04-07T09:57:04;12.85;;;10.18;;
64903;SDS011;51401;48.882;12.598;2023-04-07T09:59:31;12.60;;;10.07;;
64903;SDS011;51401;48.882;12.598;2023-04-07T10:01:57;12.70;;;9.25;;
64903;SDS011;51401;48.882;12.598;2023-04-07T10:04:23;14.77;;;11.23;;
64903;SDS011;51401;48.882;12.598;2023-04-07T10:06:51;13.00;;;9.90;;
64903;SDS011;51401;48.882;12.598;2023-04-07T10:09:17;15.23;;;11.20;;
64903;SDS011;51401;48.882;12.598;2023-04-07T10:11:43;12.93;;;11.15;;
64903;SDS011;51401;48.882;12.598;2023-04-07T10:14:08;13.05;;;10.80;;
64903;SDS011;51401;48.882;12.598;2023-04-07T10:16:36;15.85;;;10.60;;
64903;SDS011;51401;48.882;12.598;2023-04-07T10:19:02;15.35;;;11.52;;
64903;SDS011;51401;48.882;12.598;2023-04-07T10:21:28;13.35;;;10.60;;
64903;SDS011;51401;48.882;12.598;2023-04-07T10:23:58;15.32;;;11.25;;
64903;SDS011;51401;48.882;12.598;2023-04-07T10:26:29;13.77;;;10.95;;
64903;SDS011;51401;48.882;12.598;2023-04-07T10:28:59;13.15;;;10.32;;
64903;SDS011;51401;48.882;12.598;2023-04-07T10:33:53;13.00;;;10.73;;
64903;SDS011;51401;48.882;12.598;2023-04-07T10:36:20;13.55;;;10.30;;
64903;SDS011;51401;48.882;12.598;2023-04-07T10:44:00;14.77;;;11.98;;
64903;SDS011;51401;48.882;12.598;2023-04-07T10:46:45;12.65;;;10.80;;
64903;SDS011;51401;48.882;12.598;2023-04-07T10:49:12;14.60;;;11.93;;
64903;SDS011;51401;48.882;12.598;2023-04-07T10:51:38;12.65;;;11.07;;
64903;SDS011;51401;48.882;12.598;2023-04-07T10:54:17;13.77;;;11.25;;
64903;SDS011;51401;48.882;12.598;2023-04-07T10:59:30;13.23;;;10.30;;
64903;SDS011;51401;48.882;12.598;2023-04-07T11:02:30;13.30;;;10.18;;
64903;SDS011;51401;48.882;12.598;2023-04-07T11:04:48;12.32;;;10.00;;
64903;SDS011;51401;48.882;12.598;2023-04-07T11:07:13;12.55;;;10.38;;
64903;SDS011;51401;48.882;12.598;2023-04-07T11:09:40;11.82;;;10.27;;
64903;SDS011;51401;48.882;12.598;2023-04-07T11:12:06;12.05;;;10.55;;
64903;SDS011;51401;48.882;12.598;2023-04-07T11:14:32;12.05;;;9.63;;
64903;SDS011;51401;48.882;12.598;2023-04-07T11:17:01;11.97;;;9.43;;
64903;SDS011;51401;48.882;12.598;2023-04-07T11:19:27;11.77;;;9.02;;
64903;SDS011;51401;48.882;12.598;2023-04-07T11:24:37;11.15;;;8.93;;
64903;SDS011;51401;48.882;12.598;2023-04-07T11:27:03;13.40;;;10.25;;
64903;SDS011;51401;48.882;12.598;2023-04-07T11:29:29;10.45;;;8.48;;
64903;SDS011;51401;48.882;12.598;2023-04-07T11:31:58;10.05;;;8.35;;
64903;SDS011;51401;48.882;12.598;2023-04-07T11:34:28;11.13;;;8.88;;
64903;SDS011;51401;48.882;12.598;2023-04-07T11:36:54;11.95;;;9.50;;
64903;SDS011;51401;48.882;12.598;2023-04-07T11:39:23;11.93;;;8.60;;
64903;SDS011;51401;48.882;12.598;2023-04-07T11:41:52;12.52;;;9.27;;
64903;SDS011;51401;48.882;12.598;2023-04-07T11:44:17;11.73;;;9.30;;
64903;SDS011;51401;48.882;12.598;2023-04-07T11:49:22;12.10;;;8.98;;
64903;SDS011;51401;48.882;12.598;2023-04-07T11:51:48;10.73;;;8.50;;
64903;SDS011;51401;48.882;12.598;2023-04-07T11:54:22;10.90;;;8.85;;
64903;SDS011;51401;48.882;12.598;2023-04-07T11:56:48;13.00;;;9.40;;
64903;SDS011;51401;48.882;12.598;2023-04-07T11:59:19;9.52;;;8.40;;
64903;SDS011;51401;48.882;12.598;2023-04-07T12:01:48;11.25;;;8.90;;
64903;SDS011;51401;48.882;12.598;2023-04-07T12:04:15;10.18;;;8.38;;
64903;SDS011;51401;48.882;12.598;2023-04-07T12:06:41;12.43;;;9.13;;
64903;SDS011;51401;48.882;12.598;2023-04-07T12:09:08;12.07;;;9.23;;
64903;SDS011;51401;48.882;12.598;2023-04-07T12:11:49;10.70;;;8.88;;
64903;SDS011;51401;48.882;12.598;2023-04-07T12:14:14;10.80;;;8.30;;
64903;SDS011;51401;48.882;12.598;2023-04-07T12:16:40;10.90;;;8.67;;
64903;SDS011;51401;48.882;12.598;2023-04-07T12:19:06;12.13;;;9.48;;
64903;SDS011;51401;48.882;12.598;2023-04-07T12:21:32;11.65;;;9.20;;
64903;SDS011;51401;48.882;12.598;2023-04-07T12:23:57;10.82;;;9.05;;
64903;SDS011;51401;48.882;12.598;2023-04-07T12:26:22;10.00;;;8.35;;
64903;SDS011;51401;48.882;12.598;2023-04-07T12:28:49;11.85;;;9.38;;
64903;SDS011;51401;48.882;12.598;2023-04-07T12:31:14;9.93;;;8.30;;
64903;SDS011;51401;48.882;12.598;2023-04-07T12:33:39;10.87;;;9.23;;
64903;SDS011;51401;48.882;12.598;2023-04-07T12:36:05;11.17;;;8.93;;
64903;SDS011;51401;48.882;12.598;2023-04-07T12:38:30;10.95;;;8.82;;
64903;SDS011;51401;48.882;12.598;2023-04-07T12:40:56;10.32;;;8.23;;
64903;SDS011;51401;48.882;12.598;2023-04-07T12:43:27;10.20;;;8.98;;
64903;SDS011;51401;48.882;12.598;2023-04-07T12:45:52;10.18;;;8.73;;
64903;SDS011;51401;48.882;12.598;2023-04-07T12:48:18;10.53;;;9.00;;
64903;SDS011;51401;48.882;12.598;2023-04-07T12:50:43;11.67;;;8.93;;
64903;SDS011;51401;48.882;12.598;2023-04-07T12:53:08;9.63;;;8.07;;
64903;SDS011;51401;48.882;12.598;2023-04-07T12:55:36;9.60;;;8.57;;
64903;SDS011;51401;48.882;12.598;2023-04-07T12:58:06;10.75;;;9.60;;
64903;SDS011;51401;48.882;12.598;2023-04-07T13:00:31;10.70;;;8.73;;
64903;SDS011;51401;48.882;12.598;2023-04-07T13:02:56;9.90;;;8.57;;
64903;SDS011;51401;48.882;12.598;2023-04-07T13:05:22;9.65;;;8.35;;
64903;SDS011;51401;48.882;12.598;2023-04-07T13:07:47;10.15;;;8.02;;
64903;SDS011;51401;48.882;12.598;2023-04-07T13:10:13;9.18;;;8.20;;
64903;SDS011;51401;48.882;12.598;2023-04-07T13:12:38;8.82;;;7.93;;
64903;SDS011;51401;48.882;12.598;2023-04-07T13:15:04;10.43;;;8.43;;
64903;SDS011;51401;48.882;12.598;2023-04-07T13:17:29;10.48;;;9.30;;
64903;SDS011;51401;48.882;12.598;2023-04-07T13:19:55;9.48;;;8.48;;
64903;SDS011;51401;48.882;12.598;2023-04-07T13:22:20;10.80;;;9.70;;
64903;SDS011;51401;48.882;12.598;2023-04-07T13:24:46;9.68;;;8.68;;
64903;SDS011;51401;48.882;12.598;2023-04-07T13:27:11;9.05;;;7.88;;
64903;SDS011;51401;48.882;12.598;2023-04-07T13:29:37;9.82;;;8.20;;
64903;SDS011;51401;48.882;12.598;2023-04-07T13:34:36;11.77;;;9.15;;
64903;SDS011;51401;48.882;12.598;2023-04-07T13:37:05;9.90;;;8.25;;
64903;SDS011;51401;48.882;12.598;2023-04-07T13:39:31;9.35;;;8.00;;
64903;SDS011;51401;48.882;12.598;2023-04-07T13:41:57;8.70;;;7.40;;
64903;SDS011;51401;48.882;12.598;2023-04-07T13:44:23;9.57;;;7.75;;
64903;SDS011;51401;48.882;12.598;2023-04-07T13:46:50;10.50;;;8.10;;
64903;SDS011;51401;48.882;12.598;2023-04-07T13:49:16;9.10;;;7.63;;
64903;SDS011;51401;48.882;12.598;2023-04-07T13:51:50;9.10;;;7.85;;
64903;SDS011;51401;48.882;12.598;2023-04-07T13:54:19;9.65;;;8.20;;
64903;SDS011;51401;48.882;12.598;2023-04-07T13:56:50;10.02;;;8.57;;
64903;SDS011;51401;48.882;12.598;2023-04-07T13:59:15;10.55;;;8.32;;
64903;SDS011;51401;48.882;12.598;2023-04-07T14:01:40;9.98;;;8.20;;
64903;SDS011;51401;48.882;12.598;2023-04-07T14:04:06;10.38;;;8.38;;
64903;SDS011;51401;48.882;12.598;2023-04-07T14:06:31;9.73;;;7.60;;
64903;SDS011;51401;48.882;12.598;2023-04-07T14:08:57;9.27;;;7.95;;
64903;SDS011;51401;48.882;12.598;2023-04-07T14:11:23;9.32;;;7.60;;
64903;SDS011;51401;48.882;12.598;2023-04-07T14:13:49;10.05;;;8.20;;
64903;SDS011;51401;48.882;12.598;2023-04-07T14:16:15;10.73;;;8.00;;
64903;SDS011;51401;48.882;12.598;2023-04-07T14:18:41;11.13;;;8.30;;
64903;SDS011;51401;48.882;12.598;2023-04-07T14:21:07;9.27;;;7.95;;
64903;SDS011;51401;48.882;12.598;2023-04-07T14:23:32;8.15;;;7.00;;
64903;SDS011;51401;48.882;12.598;2023-04-07T14:25:57;10.90;;;8.70;;
64903;SDS011;51401;48.882;12.598;2023-04-07T14:28:23;10.20;;;7.80;;
64903;SDS011;51401;48.882;12.598;2023-04-07T14:30:49;8.98;;;7.53;;
64903;SDS011;51401;48.882;12.598;2023-04-07T14:33:14;10.20;;;8.00;;
64903;SDS011;51401;48.882;12.598;2023-04-07T14:35:44;11.10;;;8.13;;
64903;SDS011;51401;48.882;12.598;2023-04-07T14:38:32;9.55;;;6.78;;
64903;SDS011;51401;48.882;12.598;2023-04-07T14:41:00;9.02;;;7.07;;
64903;SDS011;51401;48.882;12.598;2023-04-07T14:43:27;9.45;;;7.72;;
64903;SDS011;51401;48.882;12.598;2023-04-07T14:45:53;9.43;;;6.82;;
64903;SDS011;51401;48.882;12.598;2023-04-07T14:48:18;9.90;;;8.20;;
64903;SDS011;51401;48.882;12.598;2023-04-07T14:50:43;9.17;;;6.87;;
64903;SDS011;51401;48.882;12.598;2023-04-07T14:53:09;8.65;;;7.38;;